sensor_id;sensor_type;location;lat;lon;timestamp;temperature;humidity
28524;DHT22;15734;50.904;6.922;2022-10-16T00:00:31;13.60;99.90
28524;DHT22;15734;50.904;6.922;2022-10-16T00:02:56;13.60;99.90
28524;DHT22;15734;50.904;6.922;2022-10-16T00:05:22;13.60;99.90
28524;DHT22;15734;50.904;6.922;2022-10-16T00:07:47;13.60;99.90
28524;DHT22;15734;50.904;6.922;2022-10-16T00:10:13;13.60;99.90
28524;DHT22;15734;50.904;6.922;2022-10-16T00:12:39;13.70;99.90
28524;DHT22;15734;50.904;6.922;2022-10-16T00:15:05;13.70;99.90
28524;DHT22;15734;50.904;6.922;2022-10-16T00:17:31;13.60;99.90
28524;DHT22;15734;50.904;6.922;2022-10-16T00:19:57;13.60;99.90
28524;DHT22;15734;50.904;6.922;2022-10-16T00:22:23;13.60;99.90
28524;DHT22;15734;50.904;6.922;2022-10-16T00:24:49;13.60;99.90
28524;DHT22;15734;50.904;6.922;2022-10-16T00:27:14;13.50;99.90
28524;DHT22;15734;50.904;6.922;2022-10-16T00:29:40;13.60;99.90
28524;DHT22;15734;50.904;6.922;2022-10-16T00:32:05;13.50;99.90
28524;DHT22;15734;50.904;6.922;2022-10-16T00:34:31;13.50;99.90
28524;DHT22;15734;50.904;6.922;2022-10-16T00:36:56;13.50;99.90
28524;DHT22;15734;50.904;6.922;2022-10-16T00:39:22;13.50;99.90
28524;DHT22;15734;50.904;6.922;2022-10-16T00:41:48;13.40;99.90
28524;DHT22;15734;50.904;6.922;2022-10-16T00:44:49;13.40;99.90
28524;DHT22;15734;50.904;6.922;2022-10-16T00:47:30;13.40;99.90
28524;DHT22;15734;50.904;6.922;2022-10-16T00:50:11;13.30;99.90
28524;DHT22;15734;50.904;6.922;2022-10-16T00:52:43;13.30;99.90
28524;DHT22;15734;50.904;6.922;2022-10-16T00:55:09;13.20;99.90
28524;DHT22;15734;50.904;6.922;2022-10-16T00:57:35;13.20;99.90
28524;DHT22;15734;50.904;6.922;2022-10-16T01:00:04;13.20;99.90
28524;DHT22;15734;50.904;6.922;2022-10-16T01:02:30;13.20;99.90
28524;DHT22;15734;50.904;6.922;2022-10-16T01:04:56;13.10;99.90
28524;DHT22;15734;50.904;6.922;2022-10-16T01:07:50;13.10;99.90
28524;DHT22;15734;50.904;6.922;2022-10-16T01:10:39;13.10;99.90
28524;DHT22;15734;50.904;6.922;2022-10-16T01:13:18;13.10;99.90
28524;DHT22;15734;50.904;6.922;2022-10-16T01:16:00;13.00;99.90
28524;DHT22;15734;50.904;6.922;2022-10-16T01:18:34;13.00;99.90
28524;DHT22;15734;50.904;6.922;2022-10-16T01:21:04;12.90;99.90
28524;DHT22;15734;50.904;6.922;2022-10-16T01:23:58;12.90;99.90
28524;DHT22;15734;50.904;6.922;2022-10-16T01:29:29;12.80;99.90
28524;DHT22;15734;50.904;6.922;2022-10-16T01:32:00;12.80;99.90
28524;DHT22;15734;50.904;6.922;2022-10-16T01:34:38;12.90;99.90
28524;DHT22;15734;50.904;6.922;2022-10-16T01:37:13;12.80;99.90
28524;DHT22;15734;50.904;6.922;2022-10-16T01:39:42;12.70;99.90
28524;DHT22;15734;50.904;6.922;2022-10-16T01:42:20;12.70;99.90
28524;DHT22;15734;50.904;6.922;2022-10-16T01:44:49;12.70;99.90
28524;DHT22;15734;50.904;6.922;2022-10-16T01:47:17;12.70;99.90
28524;DHT22;15734;50.904;6.922;2022-10-16T01:49:45;12.70;99.90
28524;DHT22;15734;50.904;6.922;2022-10-16T01:52:16;12.70;99.90
28524;DHT22;15734;50.904;6.922;2022-10-16T01:54:44;12.60;99.90
28524;DHT22;15734;50.904;6.922;2022-10-16T01:57:13;12.60;99.90
28524;DHT22;15734;50.904;6.922;2022-10-16T01:59:43;12.60;99.90
28524;DHT22;15734;50.904;6.922;2022-10-16T02:02:10;12.60;99.90
28524;DHT22;15734;50.904;6.922;2022-10-16T02:04:41;12.60;99.90
28524;DHT22;15734;50.904;6.922;2022-10-16T02:07:07;12.60;99.90
28524;DHT22;15734;50.904;6.922;2022-10-16T02:09:34;12.70;99.90
28524;DHT22;15734;50.904;6.922;2022-10-16T02:12:06;12.70;99.90
28524;DHT22;15734;50.904;6.922;2022-10-16T02:14:33;12.70;99.90
28524;DHT22;15734;50.904;6.922;2022-10-16T02:16:59;12.70;99.90
28524;DHT22;15734;50.904;6.922;2022-10-16T02:19:24;12.70;99.90
28524;DHT22;15734;50.904;6.922;2022-10-16T02:21:56;12.80;99.90
28524;DHT22;15734;50.904;6.922;2022-10-16T02:27:19;12.80;99.90
28524;DHT22;15734;50.904;6.922;2022-10-16T02:29:53;12.80;99.90
28524;DHT22;15734;50.904;6.922;2022-10-16T02:32:21;12.90;99.90
28524;DHT22;15734;50.904;6.922;2022-10-16T02:34:49;12.90;99.90
28524;DHT22;15734;50.904;6.922;2022-10-16T02:37:16;12.90;99.90
28524;DHT22;15734;50.904;6.922;2022-10-16T02:39:42;12.90;99.90
28524;DHT22;15734;50.904;6.922;2022-10-16T02:42:12;12.90;99.90
28524;DHT22;15734;50.904;6.922;2022-10-16T02:44:38;12.90;99.90
28524;DHT22;15734;50.904;6.922;2022-10-16T02:47:03;12.90;99.90
28524;DHT22;15734;50.904;6.922;2022-10-16T02:49:29;13.00;99.90
28524;DHT22;15734;50.904;6.922;2022-10-16T02:51:54;13.00;99.90
28524;DHT22;15734;50.904;6.922;2022-10-16T02:54:20;13.00;99.90
28524;DHT22;15734;50.904;6.922;2022-10-16T02:56:45;13.00;99.90
28524;DHT22;15734;50.904;6.922;2022-10-16T02:59:11;13.00;99.90
28524;DHT22;15734;50.904;6.922;2022-10-16T03:01:36;13.00;99.90
28524;DHT22;15734;50.904;6.922;2022-10-16T03:04:02;13.00;99.90
28524;DHT22;15734;50.904;6.922;2022-10-16T03:06:28;13.00;99.90
28524;DHT22;15734;50.904;6.922;2022-10-16T03:08:53;13.00;99.90
28524;DHT22;15734;50.904;6.922;2022-10-16T03:11:19;13.00;99.90
28524;DHT22;15734;50.904;6.922;2022-10-16T03:13:44;13.00;99.90
28524;DHT22;15734;50.904;6.922;2022-10-16T03:16:10;13.00;99.90
28524;DHT22;15734;50.904;6.922;2022-10-16T03:18:35;12.90;99.90
28524;DHT22;15734;50.904;6.922;2022-10-16T03:21:01;12.90;99.90
28524;DHT22;15734;50.904;6.922;2022-10-16T03:23:26;12.90;99.90
28524;DHT22;15734;50.904;6.922;2022-10-16T03:25:52;12.90;99.90
28524;DHT22;15734;50.904;6.922;2022-10-16T03:28:19;12.90;99.90
28524;DHT22;15734;50.904;6.922;2022-10-16T03:30:44;12.80;99.90
28524;DHT22;15734;50.904;6.922;2022-10-16T03:33:10;12.80;99.90
28524;DHT22;15734;50.904;6.922;2022-10-16T03:35:35;12.80;99.90
28524;DHT22;15734;50.904;6.922;2022-10-16T03:38:01;12.80;99.90
28524;DHT22;15734;50.904;6.922;2022-10-16T03:40:26;12.80;99.90
28524;DHT22;15734;50.904;6.922;2022-10-16T03:42:52;12.70;99.90
28524;DHT22;15734;50.904;6.922;2022-10-16T03:45:20;12.70;99.90
28524;DHT22;15734;50.904;6.922;2022-10-16T03:47:46;12.70;99.90
28524;DHT22;15734;50.904;6.922;2022-10-16T03:50:12;12.70;99.90
28524;DHT22;15734;50.904;6.922;2022-10-16T03:52:38;12.80;99.90
28524;DHT22;15734;50.904;6.922;2022-10-16T03:55:04;12.80;99.90
28524;DHT22;15734;50.904;6.922;2022-10-16T03:57:29;12.70;99.90
28524;DHT22;15734;50.904;6.922;2022-10-16T03:59:55;12.80;99.90
28524;DHT22;15734;50.904;6.922;2022-10-16T04:02:20;12.80;99.90
28524;DHT22;15734;50.904;6.922;2022-10-16T04:04:46;12.80;99.90
28524;DHT22;15734;50.904;6.922;2022-10-16T04:07:11;12.80;99.90
28524;DHT22;15734;50.904;6.922;2022-10-16T04:09:37;12.80;99.90
28524;DHT22;15734;50.904;6.922;2022-10-16T04:12:03;12.90;99.90
28524;DHT22;15734;50.904;6.922;2022-10-16T04:14:28;12.90;99.90
28524;DHT22;15734;50.904;6.922;2022-10-16T04:16:54;13.00;99.90
28524;DHT22;15734;50.904;6.922;2022-10-16T04:19:19;13.00;99.90
28524;DHT22;15734;50.904;6.922;2022-10-16T04:21:45;13.00;99.90
28524;DHT22;15734;50.904;6.922;2022-10-16T04:24:10;13.00;99.90
28524;DHT22;15734;50.904;6.922;2022-10-16T04:26:37;13.00;99.90
28524;DHT22;15734;50.904;6.922;2022-10-16T04:29:02;13.00;99.90
28524;DHT22;15734;50.904;6.922;2022-10-16T04:31:28;13.00;99.90
28524;DHT22;15734;50.904;6.922;2022-10-16T04:33:53;13.00;99.90
28524;DHT22;15734;50.904;6.922;2022-10-16T04:36:19;13.00;99.90
28524;DHT22;15734;50.904;6.922;2022-10-16T04:38:44;13.00;99.90
28524;DHT22;15734;50.904;6.922;2022-10-16T04:41:10;13.00;99.90
28524;DHT22;15734;50.904;6.922;2022-10-16T04:43:35;13.00;99.90
28524;DHT22;15734;50.904;6.922;2022-10-16T04:46:01;13.00;99.90
28524;DHT22;15734;50.904;6.922;2022-10-16T04:48:27;13.00;99.90
28524;DHT22;15734;50.904;6.922;2022-10-16T04:50:52;13.00;99.90
28524;DHT22;15734;50.904;6.922;2022-10-16T04:53:18;13.00;99.90
28524;DHT22;15734;50.904;6.922;2022-10-16T04:55:43;13.00;99.90
28524;DHT22;15734;50.904;6.922;2022-10-16T04:58:09;12.90;99.90
28524;DHT22;15734;50.904;6.922;2022-10-16T05:00:35;12.90;99.90
28524;DHT22;15734;50.904;6.922;2022-10-16T05:03:01;12.90;99.90
28524;DHT22;15734;50.904;6.922;2022-10-16T05:05:27;13.00;99.90
28524;DHT22;15734;50.904;6.922;2022-10-16T05:07:53;13.00;99.90
28524;DHT22;15734;50.904;6.922;2022-10-16T05:10:19;13.00;99.90
28524;DHT22;15734;50.904;6.922;2022-10-16T05:12:46;13.00;99.90
28524;DHT22;15734;50.904;6.922;2022-10-16T05:15:11;13.00;99.90
28524;DHT22;15734;50.904;6.922;2022-10-16T05:17:37;13.00;99.90
28524;DHT22;15734;50.904;6.922;2022-10-16T05:20:03;13.00;99.90
28524;DHT22;15734;50.904;6.922;2022-10-16T05:22:29;13.00;99.90
28524;DHT22;15734;50.904;6.922;2022-10-16T05:24:54;13.00;99.90
28524;DHT22;15734;50.904;6.922;2022-10-16T05:27:20;13.10;99.90
28524;DHT22;15734;50.904;6.922;2022-10-16T05:29:47;13.10;99.90
28524;DHT22;15734;50.904;6.922;2022-10-16T05:32:14;13.00;99.90
28524;DHT22;15734;50.904;6.922;2022-10-16T05:34:40;13.10;99.90
28524;DHT22;15734;50.904;6.922;2022-10-16T05:37:06;13.10;99.90
28524;DHT22;15734;50.904;6.922;2022-10-16T05:39:32;13.10;99.90
28524;DHT22;15734;50.904;6.922;2022-10-16T05:41:57;13.20;99.90
28524;DHT22;15734;50.904;6.922;2022-10-16T05:44:23;13.10;99.90
28524;DHT22;15734;50.904;6.922;2022-10-16T05:46:48;13.10;99.90
28524;DHT22;15734;50.904;6.922;2022-10-16T05:49:14;13.10;99.90
28524;DHT22;15734;50.904;6.922;2022-10-16T05:51:40;13.00;99.90
28524;DHT22;15734;50.904;6.922;2022-10-16T05:54:06;12.90;99.90
28524;DHT22;15734;50.904;6.922;2022-10-16T05:56:32;12.90;99.90
28524;DHT22;15734;50.904;6.922;2022-10-16T05:58:57;12.90;99.90
28524;DHT22;15734;50.904;6.922;2022-10-16T06:01:23;12.80;99.90
28524;DHT22;15734;50.904;6.922;2022-10-16T06:03:51;12.80;99.90
28524;DHT22;15734;50.904;6.922;2022-10-16T06:06:19;12.80;99.90
28524;DHT22;15734;50.904;6.922;2022-10-16T06:08:46;12.70;99.90
28524;DHT22;15734;50.904;6.922;2022-10-16T06:11:18;12.80;99.90
28524;DHT22;15734;50.904;6.922;2022-10-16T06:13:43;12.70;99.90
28524;DHT22;15734;50.904;6.922;2022-10-16T06:16:12;12.70;99.90
28524;DHT22;15734;50.904;6.922;2022-10-16T06:18:38;12.60;99.90
28524;DHT22;15734;50.904;6.922;2022-10-16T06:21:12;12.60;99.90
28524;DHT22;15734;50.904;6.922;2022-10-16T06:23:39;12.50;99.90
28524;DHT22;15734;50.904;6.922;2022-10-16T06:26:06;12.60;99.90
28524;DHT22;15734;50.904;6.922;2022-10-16T06:28:32;12.60;99.90
28524;DHT22;15734;50.904;6.922;2022-10-16T06:31:02;12.60;99.90
28524;DHT22;15734;50.904;6.922;2022-10-16T06:33:28;12.50;99.90
28524;DHT22;15734;50.904;6.922;2022-10-16T06:35:53;12.60;99.90
28524;DHT22;15734;50.904;6.922;2022-10-16T06:38:19;12.60;99.90
28524;DHT22;15734;50.904;6.922;2022-10-16T06:40:44;12.60;99.90
28524;DHT22;15734;50.904;6.922;2022-10-16T06:43:10;12.70;99.90
28524;DHT22;15734;50.904;6.922;2022-10-16T06:45:35;12.70;99.90
28524;DHT22;15734;50.904;6.922;2022-10-16T06:48:00;12.80;99.90
28524;DHT22;15734;50.904;6.922;2022-10-16T06:50:26;12.90;99.90
28524;DHT22;15734;50.904;6.922;2022-10-16T06:52:51;12.90;99.90
28524;DHT22;15734;50.904;6.922;2022-10-16T06:55:17;13.00;99.90
28524;DHT22;15734;50.904;6.922;2022-10-16T06:57:43;13.10;99.90
28524;DHT22;15734;50.904;6.922;2022-10-16T07:00:09;13.20;99.90
28524;DHT22;15734;50.904;6.922;2022-10-16T07:02:35;13.20;99.90
28524;DHT22;15734;50.904;6.922;2022-10-16T07:05:00;13.30;99.90
28524;DHT22;15734;50.904;6.922;2022-10-16T07:07:26;13.40;99.90
28524;DHT22;15734;50.904;6.922;2022-10-16T07:09:52;13.40;99.90
28524;DHT22;15734;50.904;6.922;2022-10-16T07:12:17;13.50;99.90
28524;DHT22;15734;50.904;6.922;2022-10-16T07:14:43;13.60;99.90
28524;DHT22;15734;50.904;6.922;2022-10-16T07:17:08;13.70;99.90
28524;DHT22;15734;50.904;6.922;2022-10-16T07:19:34;13.80;99.90
28524;DHT22;15734;50.904;6.922;2022-10-16T07:22:00;13.80;99.90
28524;DHT22;15734;50.904;6.922;2022-10-16T07:24:26;13.90;99.90
28524;DHT22;15734;50.904;6.922;2022-10-16T07:26:51;14.00;99.90
28524;DHT22;15734;50.904;6.922;2022-10-16T07:29:21;14.10;99.90
28524;DHT22;15734;50.904;6.922;2022-10-16T07:31:48;14.10;99.90
28524;DHT22;15734;50.904;6.922;2022-10-16T07:34:15;14.20;99.90
28524;DHT22;15734;50.904;6.922;2022-10-16T07:36:40;14.20;99.90
28524;DHT22;15734;50.904;6.922;2022-10-16T07:39:06;14.30;99.90
28524;DHT22;15734;50.904;6.922;2022-10-16T07:41:32;14.30;99.90
28524;DHT22;15734;50.904;6.922;2022-10-16T07:43:58;14.30;99.90
28524;DHT22;15734;50.904;6.922;2022-10-16T07:46:27;14.30;99.90
28524;DHT22;15734;50.904;6.922;2022-10-16T07:48:53;14.30;99.90
28524;DHT22;15734;50.904;6.922;2022-10-16T07:51:21;14.30;99.90
28524;DHT22;15734;50.904;6.922;2022-10-16T07:53:47;14.30;99.90
28524;DHT22;15734;50.904;6.922;2022-10-16T07:56:13;14.30;99.90
28524;DHT22;15734;50.904;6.922;2022-10-16T07:58:39;14.30;99.90
28524;DHT22;15734;50.904;6.922;2022-10-16T08:01:06;14.30;99.90
28524;DHT22;15734;50.904;6.922;2022-10-16T08:03:32;14.30;99.90
28524;DHT22;15734;50.904;6.922;2022-10-16T08:05:59;14.30;99.90
28524;DHT22;15734;50.904;6.922;2022-10-16T08:08:25;14.30;99.90
28524;DHT22;15734;50.904;6.922;2022-10-16T08:10:51;14.40;99.90
28524;DHT22;15734;50.904;6.922;2022-10-16T08:13:17;14.40;99.90
28524;DHT22;15734;50.904;6.922;2022-10-16T08:15:43;14.50;99.90
28524;DHT22;15734;50.904;6.922;2022-10-16T08:18:11;14.60;99.90
28524;DHT22;15734;50.904;6.922;2022-10-16T08:20:37;14.70;99.90
28524;DHT22;15734;50.904;6.922;2022-10-16T08:23:02;14.80;99.90
28524;DHT22;15734;50.904;6.922;2022-10-16T08:25:28;14.90;99.90
28524;DHT22;15734;50.904;6.922;2022-10-16T08:27:54;15.10;99.90
28524;DHT22;15734;50.904;6.922;2022-10-16T08:30:21;15.10;99.90
28524;DHT22;15734;50.904;6.922;2022-10-16T08:32:47;15.20;99.90
28524;DHT22;15734;50.904;6.922;2022-10-16T08:35:13;15.30;99.90
28524;DHT22;15734;50.904;6.922;2022-10-16T08:37:39;15.30;99.90
28524;DHT22;15734;50.904;6.922;2022-10-16T08:40:07;15.40;99.90
28524;DHT22;15734;50.904;6.922;2022-10-16T08:50:50;15.90;99.90
28524;DHT22;15734;50.904;6.922;2022-10-16T08:53:22;16.00;99.90
28524;DHT22;15734;50.904;6.922;2022-10-16T08:55:50;16.20;99.90
28524;DHT22;15734;50.904;6.922;2022-10-16T08:58:18;16.30;99.90
28524;DHT22;15734;50.904;6.922;2022-10-16T09:00:53;16.40;99.90
28524;DHT22;15734;50.904;6.922;2022-10-16T09:05:57;16.50;99.90
28524;DHT22;15734;50.904;6.922;2022-10-16T09:08:40;16.60;99.90
28524;DHT22;15734;50.904;6.922;2022-10-16T09:14:18;16.80;99.90
28524;DHT22;15734;50.904;6.922;2022-10-16T09:17:00;16.90;99.90
28524;DHT22;15734;50.904;6.922;2022-10-16T09:19:36;17.00;99.90
28524;DHT22;15734;50.904;6.922;2022-10-16T09:22:12;17.10;99.90
28524;DHT22;15734;50.904;6.922;2022-10-16T09:24:39;17.20;99.90
28524;DHT22;15734;50.904;6.922;2022-10-16T09:27:06;17.30;99.90
28524;DHT22;15734;50.904;6.922;2022-10-16T09:29:32;17.40;99.90
28524;DHT22;15734;50.904;6.922;2022-10-16T09:32:11;17.50;99.90
28524;DHT22;15734;50.904;6.922;2022-10-16T09:34:41;17.60;99.90
28524;DHT22;15734;50.904;6.922;2022-10-16T09:37:14;17.60;99.90
28524;DHT22;15734;50.904;6.922;2022-10-16T09:39:50;17.70;99.90
28524;DHT22;15734;50.904;6.922;2022-10-16T09:42:17;17.80;99.90
28524;DHT22;15734;50.904;6.922;2022-10-16T09:44:47;18.00;99.90
28524;DHT22;15734;50.904;6.922;2022-10-16T09:47:15;18.10;99.90
28524;DHT22;15734;50.904;6.922;2022-10-16T09:49:54;18.20;99.90
28524;DHT22;15734;50.904;6.922;2022-10-16T09:52:21;18.20;99.90
28524;DHT22;15734;50.904;6.922;2022-10-16T09:54:58;18.20;99.90
28524;DHT22;15734;50.904;6.922;2022-10-16T09:57:24;18.20;99.90
28524;DHT22;15734;50.904;6.922;2022-10-16T09:59:54;18.30;99.90
28524;DHT22;15734;50.904;6.922;2022-10-16T10:04:53;18.40;99.90
28524;DHT22;15734;50.904;6.922;2022-10-16T10:07:32;18.40;99.90
28524;DHT22;15734;50.904;6.922;2022-10-16T10:10:00;18.40;99.90
28524;DHT22;15734;50.904;6.922;2022-10-16T10:12:31;18.40;99.90
28524;DHT22;15734;50.904;6.922;2022-10-16T10:15:04;18.40;99.90
28524;DHT22;15734;50.904;6.922;2022-10-16T10:17:30;18.40;99.90
28524;DHT22;15734;50.904;6.922;2022-10-16T10:20:15;18.40;99.90
28524;DHT22;15734;50.904;6.922;2022-10-16T10:22:45;18.50;99.90
28524;DHT22;15734;50.904;6.922;2022-10-16T10:38:54;19.00;99.90
28524;DHT22;15734;50.904;6.922;2022-10-16T10:50:33;19.10;99.90
28524;DHT22;15734;50.904;6.922;2022-10-16T10:56:19;19.50;99.90
28524;DHT22;15734;50.904;6.922;2022-10-16T10:59:15;19.90;99.90
28524;DHT22;15734;50.904;6.922;2022-10-16T11:01:53;20.00;99.90
28524;DHT22;15734;50.904;6.922;2022-10-16T11:04:42;19.90;99.90
28524;DHT22;15734;50.904;6.922;2022-10-16T11:07:30;19.80;99.90
28524;DHT22;15734;50.904;6.922;2022-10-16T11:10:03;19.80;99.90
28524;DHT22;15734;50.904;6.922;2022-10-16T11:13:08;19.90;99.90
28524;DHT22;15734;50.904;6.922;2022-10-16T11:15:38;20.00;99.90
28524;DHT22;15734;50.904;6.922;2022-10-16T11:18:08;20.00;99.90
28524;DHT22;15734;50.904;6.922;2022-10-16T11:20:47;20.00;99.90
28524;DHT22;15734;50.904;6.922;2022-10-16T11:23:43;20.10;99.90
28524;DHT22;15734;50.904;6.922;2022-10-16T11:26:16;20.40;99.90
28524;DHT22;15734;50.904;6.922;2022-10-16T11:28:46;20.60;99.90
28524;DHT22;15734;50.904;6.922;2022-10-16T11:31:19;20.80;99.90
28524;DHT22;15734;50.904;6.922;2022-10-16T11:33:55;20.90;99.90
28524;DHT22;15734;50.904;6.922;2022-10-16T11:36:34;20.80;99.90
28524;DHT22;15734;50.904;6.922;2022-10-16T11:42:44;21.30;99.90
28524;DHT22;15734;50.904;6.922;2022-10-16T11:45:07;21.60;99.90
28524;DHT22;15734;50.904;6.922;2022-10-16T11:47:37;21.60;99.90
28524;DHT22;15734;50.904;6.922;2022-10-16T11:50:27;21.70;99.90
28524;DHT22;15734;50.904;6.922;2022-10-16T11:52:56;21.60;99.90
28524;DHT22;15734;50.904;6.922;2022-10-16T11:55:31;21.90;99.90
28524;DHT22;15734;50.904;6.922;2022-10-16T12:04:34;21.80;99.90
28524;DHT22;15734;50.904;6.922;2022-10-16T12:06:44;21.80;99.90
28524;DHT22;15734;50.904;6.922;2022-10-16T12:11:49;21.70;99.90
28524;DHT22;15734;50.904;6.922;2022-10-16T12:16:57;21.40;99.90
28524;DHT22;15734;50.904;6.922;2022-10-16T12:19:25;21.40;99.90
28524;DHT22;15734;50.904;6.922;2022-10-16T12:21:54;21.00;99.90
28524;DHT22;15734;50.904;6.922;2022-10-16T12:24:38;20.80;99.90
28524;DHT22;15734;50.904;6.922;2022-10-16T12:27:30;20.80;99.90
28524;DHT22;15734;50.904;6.922;2022-10-16T12:30:02;20.90;99.90
28524;DHT22;15734;50.904;6.922;2022-10-16T12:32:31;20.60;99.90
28524;DHT22;15734;50.904;6.922;2022-10-16T12:34:58;20.70;99.90
28524;DHT22;15734;50.904;6.922;2022-10-16T12:37:27;20.80;99.90
28524;DHT22;15734;50.904;6.922;2022-10-16T12:39:54;20.90;99.90
28524;DHT22;15734;50.904;6.922;2022-10-16T12:44:54;20.90;99.90
28524;DHT22;15734;50.904;6.922;2022-10-16T12:47:35;21.10;99.90
28524;DHT22;15734;50.904;6.922;2022-10-16T12:50:00;21.40;99.90
28524;DHT22;15734;50.904;6.922;2022-10-16T12:52:37;21.70;99.90
28524;DHT22;15734;50.904;6.922;2022-10-16T12:55:05;22.10;99.90
28524;DHT22;15734;50.904;6.922;2022-10-16T12:58:09;22.40;99.90
28524;DHT22;15734;50.904;6.922;2022-10-16T13:00:44;22.80;99.90
28524;DHT22;15734;50.904;6.922;2022-10-16T13:17:09;22.40;99.90
28524;DHT22;15734;50.904;6.922;2022-10-16T13:22:29;22.00;99.90
28524;DHT22;15734;50.904;6.922;2022-10-16T13:27:52;21.70;99.90
28524;DHT22;15734;50.904;6.922;2022-10-16T13:30:30;21.40;99.90
28524;DHT22;15734;50.904;6.922;2022-10-16T13:33:30;21.40;99.90
28524;DHT22;15734;50.904;6.922;2022-10-16T13:35:57;21.40;99.90
28524;DHT22;15734;50.904;6.922;2022-10-16T13:38:25;21.60;99.90
28524;DHT22;15734;50.904;6.922;2022-10-16T13:41:05;21.70;99.90
28524;DHT22;15734;50.904;6.922;2022-10-16T13:43:38;21.80;99.90
28524;DHT22;15734;50.904;6.922;2022-10-16T13:46:21;21.50;99.90
28524;DHT22;15734;50.904;6.922;2022-10-16T13:49:01;21.40;99.90
28524;DHT22;15734;50.904;6.922;2022-10-16T13:51:27;21.40;99.90
28524;DHT22;15734;50.904;6.922;2022-10-16T13:53:55;21.20;99.90
28524;DHT22;15734;50.904;6.922;2022-10-16T13:56:22;21.10;99.90
28524;DHT22;15734;50.904;6.922;2022-10-16T13:59:01;21.10;99.90
28524;DHT22;15734;50.904;6.922;2022-10-16T14:01:30;21.00;99.90
28524;DHT22;15734;50.904;6.922;2022-10-16T14:04:05;21.00;99.90
28524;DHT22;15734;50.904;6.922;2022-10-16T14:06:33;21.00;99.90
28524;DHT22;15734;50.904;6.922;2022-10-16T14:11:48;20.80;99.90
28524;DHT22;15734;50.904;6.922;2022-10-16T14:14:14;20.70;99.90
28524;DHT22;15734;50.904;6.922;2022-10-16T14:16:42;20.60;99.90
28524;DHT22;15734;50.904;6.922;2022-10-16T14:21:47;20.70;99.90
28524;DHT22;15734;50.904;6.922;2022-10-16T14:24:19;20.70;99.90
28524;DHT22;15734;50.904;6.922;2022-10-16T14:26:47;20.60;99.90
28524;DHT22;15734;50.904;6.922;2022-10-16T14:29:17;20.40;99.90
28524;DHT22;15734;50.904;6.922;2022-10-16T14:31:53;20.30;99.90
28524;DHT22;15734;50.904;6.922;2022-10-16T14:34:24;20.20;99.90
28524;DHT22;15734;50.904;6.922;2022-10-16T14:36:50;20.20;99.90
28524;DHT22;15734;50.904;6.922;2022-10-16T14:39:21;20.30;99.90
28524;DHT22;15734;50.904;6.922;2022-10-16T14:41:51;20.30;99.90
28524;DHT22;15734;50.904;6.922;2022-10-16T14:44:28;20.20;99.90
28524;DHT22;15734;50.904;6.922;2022-10-16T14:46:55;20.10;99.90
28524;DHT22;15734;50.904;6.922;2022-10-16T14:49:22;20.20;99.90
28524;DHT22;15734;50.904;6.922;2022-10-16T14:51:48;20.10;99.90
28524;DHT22;15734;50.904;6.922;2022-10-16T14:54:16;20.00;99.90
28524;DHT22;15734;50.904;6.922;2022-10-16T14:56:56;20.10;99.90
28524;DHT22;15734;50.904;6.922;2022-10-16T14:59:28;20.10;99.90
28524;DHT22;15734;50.904;6.922;2022-10-16T15:01:55;20.10;99.90
28524;DHT22;15734;50.904;6.922;2022-10-16T15:04:21;20.00;99.90
28524;DHT22;15734;50.904;6.922;2022-10-16T15:06:46;20.00;99.90
28524;DHT22;15734;50.904;6.922;2022-10-16T15:09:12;19.80;99.90
28524;DHT22;15734;50.904;6.922;2022-10-16T15:11:37;19.80;99.90
28524;DHT22;15734;50.904;6.922;2022-10-16T15:14:03;19.70;99.90
28524;DHT22;15734;50.904;6.922;2022-10-16T15:16:29;19.70;99.90
28524;DHT22;15734;50.904;6.922;2022-10-16T15:18:55;19.70;99.90
28524;DHT22;15734;50.904;6.922;2022-10-16T15:21:25;19.70;99.90
28524;DHT22;15734;50.904;6.922;2022-10-16T15:23:52;19.60;99.90
28524;DHT22;15734;50.904;6.922;2022-10-16T15:26:18;19.60;99.90
28524;DHT22;15734;50.904;6.922;2022-10-16T15:28:44;19.50;99.90
28524;DHT22;15734;50.904;6.922;2022-10-16T15:31:09;19.40;99.90
28524;DHT22;15734;50.904;6.922;2022-10-16T15:33:35;19.40;99.90
28524;DHT22;15734;50.904;6.922;2022-10-16T15:36:01;19.20;99.90
28524;DHT22;15734;50.904;6.922;2022-10-16T15:38:28;19.20;99.90
28524;DHT22;15734;50.904;6.922;2022-10-16T15:40:54;19.20;99.90
28524;DHT22;15734;50.904;6.922;2022-10-16T15:43:20;19.00;99.90
28524;DHT22;15734;50.904;6.922;2022-10-16T15:46:00;19.10;99.90
28524;DHT22;15734;50.904;6.922;2022-10-16T15:48:27;19.00;99.90
28524;DHT22;15734;50.904;6.922;2022-10-16T15:50:52;19.00;99.90
28524;DHT22;15734;50.904;6.922;2022-10-16T15:53:18;19.00;99.90
28524;DHT22;15734;50.904;6.922;2022-10-16T15:55:43;19.00;99.90
28524;DHT22;15734;50.904;6.922;2022-10-16T15:58:09;19.00;99.90
28524;DHT22;15734;50.904;6.922;2022-10-16T16:00:35;18.90;99.90
28524;DHT22;15734;50.904;6.922;2022-10-16T16:03:00;18.80;99.90
28524;DHT22;15734;50.904;6.922;2022-10-16T16:05:26;18.70;99.90
28524;DHT22;15734;50.904;6.922;2022-10-16T16:07:52;18.70;99.90
28524;DHT22;15734;50.904;6.922;2022-10-16T16:10:18;18.60;99.90
28524;DHT22;15734;50.904;6.922;2022-10-16T16:12:47;18.60;99.90
28524;DHT22;15734;50.904;6.922;2022-10-16T16:15:16;18.50;99.90
28524;DHT22;15734;50.904;6.922;2022-10-16T16:17:42;18.50;99.90
28524;DHT22;15734;50.904;6.922;2022-10-16T16:20:09;18.50;99.90
28524;DHT22;15734;50.904;6.922;2022-10-16T16:22:35;18.40;99.90
28524;DHT22;15734;50.904;6.922;2022-10-16T16:25:01;18.40;99.90
28524;DHT22;15734;50.904;6.922;2022-10-16T16:27:26;18.40;99.90
28524;DHT22;15734;50.904;6.922;2022-10-16T16:29:54;18.50;99.90
28524;DHT22;15734;50.904;6.922;2022-10-16T16:32:20;18.60;99.90
28524;DHT22;15734;50.904;6.922;2022-10-16T16:34:46;18.60;99.90
28524;DHT22;15734;50.904;6.922;2022-10-16T16:37:12;18.60;99.90
28524;DHT22;15734;50.904;6.922;2022-10-16T16:39:37;18.60;99.90
28524;DHT22;15734;50.904;6.922;2022-10-16T16:42:03;18.60;99.90
28524;DHT22;15734;50.904;6.922;2022-10-16T16:44:29;18.50;99.90
28524;DHT22;15734;50.904;6.922;2022-10-16T16:46:55;18.50;99.90
28524;DHT22;15734;50.904;6.922;2022-10-16T16:49:21;18.60;99.90
28524;DHT22;15734;50.904;6.922;2022-10-16T16:51:46;18.50;99.90
28524;DHT22;15734;50.904;6.922;2022-10-16T16:54:12;18.50;99.90
28524;DHT22;15734;50.904;6.922;2022-10-16T16:56:39;18.50;99.90
28524;DHT22;15734;50.904;6.922;2022-10-16T16:59:12;18.50;99.90
28524;DHT22;15734;50.904;6.922;2022-10-16T17:01:39;18.40;99.90
28524;DHT22;15734;50.904;6.922;2022-10-16T17:04:05;18.40;99.90
28524;DHT22;15734;50.904;6.922;2022-10-16T17:06:31;18.40;99.90
28524;DHT22;15734;50.904;6.922;2022-10-16T17:08:57;18.30;99.90
28524;DHT22;15734;50.904;6.922;2022-10-16T17:11:26;18.30;99.90